Time;durP1;ratioP1;P1;durP2;ratioP2;P2;SDS_P1;SDS_P2;PMS_P1;PMS_P2;Temp;Humidity;BMP_temperature;BMP_pressure;BME280_temperature;BME280_humidity;BME280_pressure;Samples;Min_cycle;Max_cycle;Signal;HPM_P1;HPM_P2
2021/12/30 00:01:22;;;;;;;35.75;9.32;;;;;;;10.14;96.59;101009.63;4980684;28;20057;-73
2021/12/30 00:03:48;;;;;;;40.35;8.82;;;;;;;10.14;96.87;101015.06;4986680;28;20030;-74
2021/12/30 00:06:17;;;;;;;39.75;8.98;;;;;;;10.14;96.41;101007.78;4985489;28;20113;-74
2021/12/30 00:08:42;;;;;;;40.20;8.10;;;;;;;10.15;96.70;101006.78;4987372;28;20015;-75
2021/12/30 00:11:08;;;;;;;38.90;9.10;;;;;;;10.13;96.63;101011.47;4987686;28;20049;-74
2021/12/30 00:13:34;;;;;;;46.35;9.07;;;;;;;10.15;96.88;101014.06;4983689;28;20105;-73
2021/12/30 00:15:59;;;;;;;31.08;8.18;;;;;;;10.19;96.89;101021.91;4990627;28;20089;-75
2021/12/30 00:18:25;;;;;;;34.70;8.40;;;;;;;10.20;96.54;101014.63;4988342;28;20450;-74
2021/12/30 00:20:50;;;;;;;59.63;9.88;;;;;;;10.21;96.75;101016.38;4981836;28;20031;-74
2021/12/30 00:23:16;;;;;;;40.20;7.60;;;;;;;10.22;96.49;101015.41;4987590;28;20023;-75
2021/12/30 00:25:42;;;;;;;37.83;8.48;;;;;;;10.25;96.73;101022.50;4983409;28;20026;-75
2021/12/30 00:28:22;;;;;;;33.38;7.50;;;;;;;10.28;96.79;101025.03;4982336;28;20022;-75
2021/12/30 00:30:49;;;;;;;42.83;10.27;;;;;;;10.31;96.64;101017.53;4984360;28;20030;-75
2021/12/30 00:33:15;;;;;;;43.55;8.70;;;;;;;10.36;96.89;101022.66;4980831;28;20032;-75
2021/12/30 00:35:40;;;;;;;41.10;8.55;;;;;;;10.38;96.88;101024.28;4982745;28;20538;-75
2021/12/30 00:38:07;;;;;;;36.30;8.85;;;;;;;10.41;96.94;101029.53;4982783;28;20027;-76
2021/12/30 00:40:33;;;;;;;44.65;9.52;;;;;;;10.40;96.79;101033.22;4985952;28;20022;-75
2021/12/30 00:42:59;;;;;;;42.70;8.70;;;;;;;10.45;96.96;101036.50;4979244;28;20038;-75
2021/12/30 00:45:26;;;;;;;38.38;9.25;;;;;;;10.47;96.87;101045.41;4975421;28;20038;-76
2021/12/30 00:47:51;;;;;;;47.95;9.30;;;;;;;10.48;96.75;101049.88;4985689;28;20706;-74
2021/12/30 00:50:18;;;;;;;34.80;8.63;;;;;;;10.50;96.84;101047.06;4986424;28;20037;-75
2021/12/30 00:52:44;;;;;;;33.60;9.50;;;;;;;10.51;96.92;101045.22;4990098;28;20030;-74
2021/12/30 00:55:09;;;;;;;27.70;9.63;;;;;;;10.54;96.55;101045.88;4989610;28;20358;-74
2021/12/30 00:57:35;;;;;;;47.00;8.90;;;;;;;10.55;96.84;101052.19;4990247;28;20031;-74
2021/12/30 01:00:02;;;;;;;36.33;9.88;;;;;;;10.54;96.39;101045.88;4976476;28;20030;-74
2021/12/30 01:02:27;;;;;;;44.28;10.07;;;;;;;10.55;96.58;101044.03;4989519;28;20037;-74
2021/12/30 01:04:53;;;;;;;33.17;8.45;;;;;;;10.55;96.55;101046.75;4979026;28;20394;-74
2021/12/30 01:07:21;;;;;;;29.15;7.72;;;;;;;10.56;96.71;101043.91;4977896;28;20389;-75
2021/12/30 01:09:46;;;;;;;31.45;8.27;;;;;;;10.57;96.80;101037.47;4990924;28;20053;-75
2021/12/30 01:12:11;;;;;;;31.10;7.80;;;;;;;10.59;96.87;101048.28;4989266;28;20077;-74
2021/12/30 01:14:37;;;;;;;37.70;7.57;;;;;;;10.60;96.67;101050.00;4979828;28;20026;-73
2021/12/30 01:17:16;;;;;;;34.83;7.97;;;;;;;10.60;96.51;101050.00;4990578;28;20058;-73
2021/12/30 01:19:42;;;;;;;36.35;6.82;;;;;;;10.63;96.74;101056.13;4980480;28;20026;-75
2021/12/30 01:22:23;;;;;;;41.50;8.45;;;;;;;10.64;97.02;101057.00;4976866;28;20027;-74
2021/12/30 01:24:49;;;;;;;36.75;6.55;;;;;;;10.64;97.14;101059.72;4988623;28;20129;-75
2021/12/30 01:27:19;;;;;;;32.45;7.10;;;;;;;10.66;96.98;101046.84;4985677;28;20466;-75
2021/12/30 01:29:45;;;;;;;38.90;6.80;;;;;;;10.70;97.24;101053.84;4978019;28;20077;-75
2021/12/30 01:32:10;;;;;;;24.98;6.50;;;;;;;10.73;97.43;101046.34;4978765;28;20061;-74
2021/12/30 01:34:36;;;;;;;41.45;7.43;;;;;;;10.75;97.14;101053.50;4989519;28;20026;-74
2021/12/30 01:37:04;;;;;;;36.42;6.93;;;;;;;10.77;97.54;101056.97;4974026;28;20514;-74
2021/12/30 01:39:31;;;;;;;35.38;6.63;;;;;;;10.81;97.32;101050.34;4981958;28;20065;-75
2021/12/30 01:41:58;;;;;;;36.58;8.45;;;;;;;10.84;97.46;101051.00;4977951;28;20102;-76
2021/12/30 01:44:23;;;;;;;35.25;7.40;;;;;;;10.88;97.61;101052.53;4984977;28;20061;-74
2021/12/30 01:46:49;;;;;;;35.40;6.95;;;;;;;10.94;97.63;101041.22;4980289;28;20085;-74
2021/12/30 01:49:15;;;;;;;34.70;7.90;;;;;;;10.97;97.38;101046.44;4987219;28;20054;-76
2021/12/30 01:51:42;;;;;;;27.05;7.97;;;;;;;10.97;97.54;101045.59;4986658;28;20058;-74
2021/12/30 01:54:08;;;;;;;30.95;8.80;;;;;;;11.04;97.53;101049.59;4989209;28;20077;-75
2021/12/30 01:56:34;;;;;;;34.78;8.93;;;;;;;11.06;97.77;101044.06;4980711;28;20113;-76
2021/12/30 01:59:02;;;;;;;23.95;8.45;;;;;;;11.08;97.63;101048.41;4984855;28;20314;-75
2021/12/30 02:01:28;;;;;;;26.40;7.88;;;;;;;11.13;97.54;101042.63;4987409;28;20405;-76
2021/12/30 02:03:54;;;;;;;36.92;9.30;;;;;;;11.15;97.47;101035.25;4987076;28;20030;-77
2021/12/30 02:06:19;;;;;;;40.67;9.50;;;;;;;11.16;97.50;101039.69;4978775;28;20038;-74
2021/12/30 02:08:45;;;;;;;40.08;8.18;;;;;;;11.18;97.64;101032.28;4984289;28;20162;-74
2021/12/30 02:11:10;;;;;;;39.80;8.93;;;;;;;11.19;97.55;101034.00;4987404;28;20525;-74
2021/12/30 02:13:36;;;;;;;44.50;9.18;;;;;;;11.21;97.52;101041.09;4983213;28;20039;-75
2021/12/30 02:16:02;;;;;;;31.10;9.63;;;;;;;11.24;97.80;101050.91;4980554;28;20030;-76
2021/12/30 02:18:31;;;;;;;31.38;7.88;;;;;;;11.28;97.75;101051.53;4989660;28;20026;-76
2021/12/30 02:20:59;;;;;;;32.13;9.57;;;;;;;11.30;97.55;101057.75;4979426;28;20037;-76
2021/12/30 02:23:25;;;;;;;36.67;9.13;;;;;;;11.30;97.12;101053.19;4986480;28;20074;-73
2021/12/30 02:25:53;;;;;;;28.30;8.80;;;;;;;11.31;97.65;101057.66;4986684;28;20050;-75
2021/12/30 02:28:23;;;;;;;37.63;9.30;;;;;;;11.32;97.77;101050.34;4984667;28;20066;-75
2021/12/30 02:30:50;;;;;;;32.45;11.88;;;;;;;11.32;97.76;101055.78;4981683;28;20035;-76
2021/12/30 02:33:15;;;;;;;28.42;8.88;;;;;;;11.34;97.77;101056.56;4981638;28;20030;-74
2021/12/30 02:35:41;;;;;;;38.80;9.63;;;;;;;11.35;97.81;101059.16;4985423;28;20369;-74
2021/12/30 02:38:06;;;;;;;33.70;9.75;;;;;;;11.37;97.73;101054.47;4979642;28;20035;-74
2021/12/30 02:40:43;;;;;;;30.10;9.80;;;;;;;11.40;98.08;101058.84;4986125;28;20034;-75
2021/12/30 02:43:14;;;;;;;36.60;9.57;;;;;;;11.38;97.90;101058.09;4983001;28;20150;-74
2021/12/30 02:45:40;;;;;;;32.58;9.07;;;;;;;11.40;97.97;101059.69;4988002;28;20072;-74
2021/12/30 02:48:06;;;;;;;23.65;7.75;;;;;;;11.41;98.05;101055.13;4982683;28;20030;-75
2021/12/30 02:50:31;;;;;;;27.70;8.27;;;;;;;11.42;97.89;101059.59;4971759;28;20475;-75
2021/12/30 02:52:56;;;;;;;30.08;8.02;;;;;;;11.43;97.95;101059.50;4987463;28;20034;-75
2021/12/30 02:55:22;;;;;;;27.17;8.00;;;;;;;11.44;98.21;101061.22;4981419;28;20474;-75
2021/12/30 02:57:48;;;;;;;32.50;8.35;;;;;;;11.45;98.58;101062.97;4976470;28;20061;-76
2021/12/30 03:00:14;;;;;;;31.33;7.85;;;;;;;11.43;98.26;101064.94;4985696;28;20034;-75
2021/12/30 03:02:39;;;;;;;22.30;7.80;;;;;;;11.46;98.53;101067.41;4986807;28;20030;-76
2021/12/30 03:05:07;;;;;;;23.45;8.02;;;;;;;11.48;98.63;101067.34;4974058;28;20495;-76
2021/12/30 03:07:33;;;;;;;22.73;7.40;;;;;;;11.46;98.94;101064.69;4981070;28;20030;-76
2021/12/30 03:09:58;;;;;;;17.75;7.85;;;;;;;11.47;99.02;101071.00;4988156;28;20506;-74
2021/12/30 03:12:23;;;;;;;19.52;7.47;;;;;;;11.48;98.88;101072.78;4976144;28;20069;-75
2021/12/30 03:14:49;;;;;;;18.27;6.93;;;;;;;11.46;98.96;101069.28;4983956;28;20037;-76
2021/12/30 03:17:14;;;;;;;21.75;6.20;;;;;;;11.48;99.12;101073.66;4976505;28;20390;-75
2021/12/30 03:19:39;;;;;;;20.20;6.57;;;;;;;11.49;99.34;101080.84;4983896;28;20373;-74
2021/12/30 03:22:04;;;;;;;18.45;6.00;;;;;;;11.49;99.06;101071.78;4974484;28;20022;-76
2021/12/30 03:24:30;;;;;;;17.20;6.45;;;;;;;11.46;99.05;101069.28;4983790;28;20054;-77
2021/12/30 03:26:55;;;;;;;17.95;6.25;;;;;;;11.50;99.48;101070.81;4985025;28;20033;-75
2021/12/30 03:29:21;;;;;;;25.75;7.07;;;;;;;11.50;99.35;101077.13;4980404;28;20026;-75
2021/12/30 03:31:47;;;;;;;16.58;5.93;;;;;;;11.49;99.57;101075.38;4984792;28;20065;-75
2021/12/30 03:34:13;;;;;;;15.43;6.00;;;;;;;11.50;99.50;101074.41;4976247;28;20026;-74
2021/12/30 03:36:38;;;;;;;13.90;6.82;;;;;;;11.52;99.51;101073.41;4972807;28;20031;-76
2021/12/30 03:39:04;;;;;;;20.65;6.25;;;;;;;11.52;99.68;101071.59;4987430;28;20358;-76
2021/12/30 03:41:30;;;;;;;18.08;5.70;;;;;;;11.54;99.73;101072.31;4982432;28;20030;-76
2021/12/30 03:43:57;;;;;;;12.70;5.38;;;;;;;11.54;99.87;101072.31;4975327;28;20165;-75
2021/12/30 03:46:23;;;;;;;14.93;5.10;;;;;;;11.57;100.00;101073.97;4978512;28;20081;-74
2021/12/30 03:48:48;;;;;;;12.80;5.22;;;;;;;11.57;99.78;101077.56;4985575;28;20125;-75
2021/12/30 03:51:23;;;;;;;16.58;5.30;;;;;;;11.59;99.87;101080.16;4973290;28;20031;-74
2021/12/30 03:53:53;;;;;;;11.02;5.35;;;;;;;11.61;100.00;101081.81;4975450;28;20026;-74
2021/12/30 03:56:22;;;;;;;15.48;5.65;;;;;;;11.64;99.82;101075.25;4979794;28;20030;-75
2021/12/30 03:58:48;;;;;;;12.00;5.88;;;;;;;11.66;100.00;101082.34;4980047;28;20027;-76
2021/12/30 04:01:17;;;;;;;11.75;5.35;;;;;;;11.69;100.00;101064.88;4981630;28;20395;-74
2021/12/30 04:03:42;;;;;;;12.20;6.28;;;;;;;11.69;99.81;101071.19;4981447;28;20106;-75
2021/12/30 04:06:08;;;;;;;14.45;6.63;;;;;;;11.72;100.00;101065.53;4980993;28;20051;-74
2021/12/30 04:08:34;;;;;;;14.65;7.32;;;;;;;11.75;100.00;101076.22;4980512;28;20105;-75
2021/12/30 04:10:59;;;;;;;13.10;6.65;;;;;;;11.78;100.00;101074.22;4984859;28;20498;-75
2021/12/30 04:13:25;;;;;;;17.35;8.13;;;;;;;11.82;100.00;101079.38;4984500;28;20060;-76
2021/12/30 04:15:52;;;;;;;15.77;8.43;;;;;;;11.84;100.00;101073.81;4986681;28;20360;-76
2021/12/30 04:18:17;;;;;;;16.42;9.20;;;;;;;11.88;99.98;101084.38;4986063;28;20371;-76
2021/12/30 04:20:42;;;;;;;15.65;8.68;;;;;;;11.88;99.84;101089.81;4978242;28;20025;-75
2021/12/30 04:23:08;;;;;;;20.58;9.77;;;;;;;11.91;99.91;101083.28;4984017;28;20398;-76
2021/12/30 04:25:34;;;;;;;18.20;9.95;;;;;;;11.95;99.73;101092.97;4988019;28;20037;-75
2021/12/30 04:28:00;;;;;;;20.35;10.05;;;;;;;11.98;100.00;101087.28;4978551;28;20155;-75
2021/12/30 04:30:26;;;;;;;22.58;11.80;;;;;;;12.00;100.00;101091.66;4985881;28;20066;-75
2021/12/30 04:32:52;;;;;;;21.25;10.50;;;;;;;12.02;100.00;101102.44;4983084;28;20038;-75
2021/12/30 04:35:17;;;;;;;23.10;11.85;;;;;;;12.03;99.97;101093.28;4981526;28;20030;-75
2021/12/30 04:37:42;;;;;;;24.08;12.25;;;;;;;12.06;99.88;101101.22;4971165;28;20458;-76
2021/12/30 04:40:09;;;;;;;23.90;13.55;;;;;;;12.09;99.83;101091.94;4977813;28;20065;-75
2021/12/30 04:42:35;;;;;;;27.00;15.18;;;;;;;12.13;99.93;101085.28;4983462;28;20105;-75
2021/12/30 04:45:00;;;;;;;31.20;16.27;;;;;;;12.17;100.00;101089.50;4975335;28;20535;-74
2021/12/30 04:47:25;;;;;;;30.98;16.27;;;;;;;12.17;99.68;101098.56;4981811;28;20022;-76
2021/12/30 04:49:53;;;;;;;30.63;16.58;;;;;;;12.21;99.65;101100.06;4984338;28;20101;-74
2021/12/30 04:52:19;;;;;;;31.02;17.52;;;;;;;12.21;99.66;101110.97;4973304;28;20050;-75
2021/12/30 04:54:44;;;;;;;32.17;17.45;;;;;;;12.24;99.44;101113.47;4986969;28;20061;-75
2021/12/30 04:57:10;;;;;;;33.25;18.38;;;;;;;12.26;99.63;101105.16;4982679;28;20029;-76
2021/12/30 04:59:35;;;;;;;33.70;18.42;;;;;;;12.28;99.42;101105.94;4986375;28;20057;-77
2021/12/30 05:02:00;;;;;;;37.35;18.83;;;;;;;12.29;99.47;101101.34;4986473;28;20073;-77
2021/12/30 05:04:26;;;;;;;32.30;18.85;;;;;;;12.28;99.17;101108.66;4988840;28;20026;-75
2021/12/30 05:06:51;;;;;;;34.33;19.77;;;;;;;12.32;99.47;101115.63;4982353;28;20667;-75
2021/12/30 05:09:16;;;;;;;28.60;17.30;;;;;;;12.32;98.98;101107.47;4983549;28;20105;-74
2021/12/30 05:11:42;;;;;;;37.05;19.77;;;;;;;12.32;99.26;101112.91;4987182;28;20042;-76
2021/12/30 05:14:11;;;;;;;32.35;19.48;;;;;;;12.30;99.07;101112.13;4983720;28;20399;-75
2021/12/30 05:16:37;;;;;;;30.52;18.13;;;;;;;12.36;99.08;101122.63;4986751;28;20263;-76
2021/12/30 05:19:03;;;;;;;32.10;18.60;;;;;;;12.38;98.99;101125.22;4976394;28;20093;-76
2021/12/30 05:21:28;;;;;;;29.85;18.17;;;;;;;12.39;98.89;101122.34;4977545;28;20100;-75
2021/12/30 05:23:54;;;;;;;30.55;18.23;;;;;;;12.40;99.06;101128.69;4988358;28;20026;-75
2021/12/30 05:26:22;;;;;;;30.38;17.75;;;;;;;12.42;98.79;101132.19;4976600;28;20043;-76
2021/12/30 05:28:47;;;;;;;31.60;18.60;;;;;;;12.43;98.86;101128.47;4975837;28;20118;-76
2021/12/30 05:31:12;;;;;;;29.27;18.55;;;;;;;12.44;98.70;101141.97;4979590;28;20117;-74
2021/12/30 05:33:38;;;;;;;31.65;18.45;;;;;;;12.44;98.79;101147.44;4984142;28;20058;-76
2021/12/30 05:36:04;;;;;;;28.25;18.02;;;;;;;12.42;98.84;101143.97;4982280;28;20042;-76
2021/12/30 05:38:29;;;;;;;24.45;17.05;;;;;;;12.43;98.73;101139.38;4984484;28;20026;-76
2021/12/30 05:40:54;;;;;;;23.00;15.88;;;;;;;12.45;98.82;101143.75;4985778;28;20375;-75
2021/12/30 05:43:20;;;;;;;27.80;16.83;;;;;;;12.47;98.81;101138.16;4986185;28;20034;-75
2021/12/30 05:45:45;;;;;;;25.50;16.67;;;;;;;12.46;98.54;101148.22;4983805;28;20029;-74
2021/12/30 05:48:11;;;;;;;23.00;16.23;;;;;;;12.49;98.48;101147.09;4973095;28;20035;-75
2021/12/30 05:50:36;;;;;;;23.00;15.88;;;;;;;12.51;98.20;101156.91;4982205;28;20113;-76
2021/12/30 05:53:03;;;;;;;21.67;15.98;;;;;;;12.55;98.10;101170.34;4983231;28;20041;-74
2021/12/30 05:55:28;;;;;;;16.02;12.25;;;;;;;12.54;97.51;101165.84;4975724;28;20041;-74
2021/12/30 05:57:55;;;;;;;16.13;12.65;;;;;;;12.59;97.44;101161.81;4984593;28;20812;-76
2021/12/30 06:00:21;;;;;;;13.73;10.27;;;;;;;12.60;97.19;101169.00;4984006;28;20041;-76
2021/12/30 06:02:47;;;;;;;12.02;8.50;;;;;;;12.60;96.70;101160.81;4988935;28;20059;-75
2021/12/30 06:05:13;;;;;;;11.93;9.57;;;;;;;12.64;96.62;101173.25;4983481;28;20080;-75
2021/12/30 06:07:39;;;;;;;12.50;8.45;;;;;;;12.64;96.56;101156.88;4979963;28;20031;-73
2021/12/30 06:10:05;;;;;;;11.32;8.90;;;;;;;12.64;96.47;101156.00;4987547;28;20033;-74
2021/12/30 06:12:30;;;;;;;12.30;8.85;;;;;;;12.65;96.41;101155.00;4983701;28;20069;-76
2021/12/30 06:14:55;;;;;;;12.10;8.68;;;;;;;12.63;96.22;101156.97;4988526;28;20065;-74
2021/12/30 06:17:21;;;;;;;13.43;9.13;;;;;;;12.65;96.31;101164.06;4984682;28;20032;-74
2021/12/30 06:19:46;;;;;;;14.10;9.27;;;;;;;12.63;96.25;101160.56;4986861;28;20042;-75
2021/12/30 06:22:12;;;;;;;12.38;9.68;;;;;;;12.63;96.07;101171.47;4979364;28;20038;-74
2021/12/30 06:24:38;;;;;;;13.98;9.93;;;;;;;12.61;96.02;101169.88;4984541;28;20076;-75
2021/12/30 06:27:04;;;;;;;14.00;10.05;;;;;;;12.62;95.65;101163.41;4988975;28;20034;-77
2021/12/30 06:29:29;;;;;;;15.45;9.85;;;;;;;12.63;95.78;101168.75;4987142;28;20165;-75
2021/12/30 06:31:54;;;;;;;16.88;9.95;;;;;;;12.62;95.90;101169.75;4987079;28;20042;-75
2021/12/30 06:34:20;;;;;;;17.08;10.95;;;;;;;12.62;96.04;101167.00;4986823;28;20050;-77
2021/12/30 06:36:45;;;;;;;15.55;10.43;;;;;;;12.63;96.03;101159.69;4979129;28;20030;-76
2021/12/30 06:39:10;;;;;;;16.27;10.48;;;;;;;12.62;95.79;101167.00;4987316;28;20026;-75
2021/12/30 06:41:36;;;;;;;13.82;10.85;;;;;;;12.63;95.79;101173.34;4973929;28;20693;-76
2021/12/30 06:44:01;;;;;;;16.35;11.18;;;;;;;12.65;95.84;101176.84;4984912;28;20541;-75
2021/12/30 06:46:26;;;;;;;15.18;10.55;;;;;;;12.65;95.55;101166.78;4982167;28;20038;-73
2021/12/30 06:48:52;;;;;;;14.93;10.82;;;;;;;12.66;95.77;101171.25;4984975;28;20501;-77
2021/12/30 06:51:21;;;;;;;14.15;10.35;;;;;;;12.67;95.56;101180.31;4982105;28;20097;-76
2021/12/30 06:53:47;;;;;;;14.75;10.30;;;;;;;12.66;95.57;101184.03;4988135;28;20034;-75
2021/12/30 06:56:14;;;;;;;13.00;10.43;;;;;;;12.66;95.41;101184.91;4979298;28;20045;-75
2021/12/30 06:58:39;;;;;;;14.55;10.00;;;;;;;12.70;95.58;101201.94;4983186;28;20482;-75
2021/12/30 07:01:04;;;;;;;14.38;10.25;;;;;;;12.68;95.66;101192.97;4971189;28;20141;-76
2021/12/30 07:03:30;;;;;;;14.43;10.02;;;;;;;12.68;95.55;101204.78;4988004;28;20478;-73
2021/12/30 07:05:56;;;;;;;14.25;9.93;;;;;;;12.70;95.31;101219.19;4980462;28;20483;-74
2021/12/30 07:08:22;;;;;;;14.35;10.52;;;;;;;12.70;95.13;101204.66;4977218;28;20034;-76
2021/12/30 07:10:47;;;;;;;17.15;10.52;;;;;;;12.71;95.27;101207.25;4976120;28;20058;-75
2021/12/30 07:13:12;;;;;;;13.23;10.38;;;;;;;12.68;95.62;101212.97;4977045;28;20022;-74
2021/12/30 07:15:38;;;;;;;14.60;10.98;;;;;;;12.70;95.29;101213.72;4987343;28;20034;-77
2021/12/30 07:18:03;;;;;;;15.05;11.07;;;;;;;12.71;95.58;101220.03;4987033;28;20058;-74
2021/12/30 07:20:29;;;;;;;16.55;11.65;;;;;;;12.70;95.40;101229.22;4977558;28;20429;-75
2021/12/30 07:22:54;;;;;;;14.55;10.35;;;;;;;12.71;95.21;101228.22;4980182;28;20038;-75
2021/12/30 07:25:19;;;;;;;15.73;11.57;;;;;;;12.71;95.45;101231.84;4980583;28;20029;-74
2021/12/30 07:27:47;;;;;;;15.75;11.82;;;;;;;12.73;95.31;101229.88;4970067;28;20073;-74
2021/12/30 07:30:12;;;;;;;18.52;12.52;;;;;;;12.72;95.56;101236.28;4983046;28;20461;-75
2021/12/30 07:32:38;;;;;;;17.52;11.98;;;;;;;12.73;95.26;101227.16;4968262;28;20125;-74
2021/12/30 07:35:05;;;;;;;20.27;13.00;;;;;;;12.74;95.35;101230.75;4973582;28;20066;-76
2021/12/30 07:37:30;;;;;;;19.77;13.80;;;;;;;12.71;95.36;101231.84;4985586;28;20394;-75
2021/12/30 07:39:55;;;;;;;20.98;14.40;;;;;;;12.75;95.39;101235.22;4985837;28;20026;-75
2021/12/30 07:42:20;;;;;;;19.75;14.90;;;;;;;12.76;95.39;101242.41;4984830;28;20032;-74
2021/12/30 07:44:46;;;;;;;24.25;15.63;;;;;;;12.75;95.36;101241.53;4968670;28;20483;-75
2021/12/30 07:47:11;;;;;;;22.25;14.80;;;;;;;12.78;95.23;101237.72;4982734;28;20080;-74
2021/12/30 07:49:36;;;;;;;21.70;15.45;;;;;;;12.80;95.05;101246.66;4987755;28;20041;-74
2021/12/30 07:52:06;;;;;;;20.30;14.73;;;;;;;12.79;95.14;101244.91;4978509;28;20137;-74
2021/12/30 07:54:31;;;;;;;24.00;14.48;;;;;;;12.79;95.08;101249.50;4984047;28;20038;-74
2021/12/30 07:56:57;;;;;;;18.80;13.30;;;;;;;12.77;95.28;101245.00;4982867;28;20031;-75
2021/12/30 07:59:22;;;;;;;16.25;12.30;;;;;;;12.79;95.04;101246.78;4984228;28;20034;-75
2021/12/30 08:01:48;;;;;;;18.33;12.65;;;;;;;12.75;94.87;101247.00;4968595;28;20039;-76
2021/12/30 08:04:13;;;;;;;16.77;11.60;;;;;;;12.73;94.99;101246.25;4973783;28;20411;-75
2021/12/30 08:06:39;;;;;;;17.85;11.63;;;;;;;12.70;94.91;101237.41;4976575;28;20490;-73
2021/12/30 08:09:06;;;;;;;13.55;9.93;;;;;;;12.66;94.79;101244.09;4980890;28;20133;-75
2021/12/30 08:11:31;;;;;;;14.23;9.63;;;;;;;12.66;94.99;101257.75;4986576;28;20057;-76
2021/12/30 08:13:56;;;;;;;12.18;9.05;;;;;;;12.61;94.71;101265.41;4977466;28;20035;-74
2021/12/30 08:16:22;;;;;;;11.57;8.10;;;;;;;12.60;95.02;101271.84;4984534;28;20544;-74
2021/12/30 08:18:47;;;;;;;11.23;8.07;;;;;;;12.56;94.57;101271.19;4987233;28;20153;-75
2021/12/30 08:21:13;;;;;;;12.68;8.07;;;;;;;12.58;95.02;101274.69;4984083;28;20034;-76
2021/12/30 08:23:38;;;;;;;11.70;6.95;;;;;;;12.59;95.18;101281.91;4985419;28;20367;-75
2021/12/30 08:26:04;;;;;;;8.18;5.95;;;;;;;12.64;95.10;101278.84;4987497;28;20109;-76
2021/12/30 08:28:29;;;;;;;11.63;6.80;;;;;;;12.67;95.31;101284.03;4979905;28;20023;-75
2021/12/30 08:30:55;;;;;;;9.68;6.20;;;;;;;12.68;94.81;101270.31;4975841;28;20049;-76
2021/12/30 08:33:20;;;;;;;8.95;6.00;;;;;;;12.73;94.77;101273.56;4986047;28;20026;-76
2021/12/30 08:35:45;;;;;;;8.85;5.03;;;;;;;12.74;94.91;101271.69;4986619;28;20026;-76
2021/12/30 08:38:12;;;;;;;7.18;4.70;;;;;;;12.70;94.76;101271.03;4989314;28;20033;-76
2021/12/30 08:40:37;;;;;;;5.68;4.32;;;;;;;12.72;94.30;101277.25;4986680;28;20030;-75
2021/12/30 08:43:03;;;;;;;6.43;3.75;;;;;;;12.73;94.66;101281.75;4983018;28;20378;-76
2021/12/30 08:45:29;;;;;;;6.57;3.70;;;;;;;12.73;94.47;101278.16;4987730;28;20041;-75
2021/12/30 08:47:54;;;;;;;9.88;3.85;;;;;;;12.74;94.59;101285.34;4988373;28;20045;-75
2021/12/30 08:50:19;;;;;;;5.45;3.30;;;;;;;12.73;94.66;101292.66;4975699;28;20861;-76
2021/12/30 08:52:46;;;;;;;7.13;2.95;;;;;;;12.76;94.56;101302.47;4987845;28;20026;-75
2021/12/30 08:55:14;;;;;;;6.15;3.33;;;;;;;12.80;94.72;101305.84;4982206;28;20060;-76
2021/12/30 08:57:40;;;;;;;4.43;3.00;;;;;;;12.82;94.47;101310.19;4985550;28;20046;-76
2021/12/30 09:00:27;;;;;;;6.75;3.65;;;;;;;12.85;94.45;101320.03;4981366;28;20042;-76
2021/12/30 09:02:54;;;;;;;6.47;4.10;;;;;;;12.89;94.27;101316.97;4988209;28;20031;-76
2021/12/30 09:05:20;;;;;;;8.18;4.15;;;;;;;12.92;94.22;101310.41;4979025;28;20046;-75
2021/12/30 09:07:47;;;;;;;7.25;4.88;;;;;;;12.92;94.20;101316.75;4981463;28;20033;-75
2021/12/30 09:10:14;;;;;;;7.97;4.22;;;;;;;12.95;94.27;101321.94;4974283;28;20084;-76
2021/12/30 09:12:43;;;;;;;16.05;5.10;;;;;;;12.97;93.59;101311.81;4980744;28;20121;-76
2021/12/30 09:15:11;;;;;;;6.55;4.68;;;;;;;13.05;93.47;101302.16;4979910;28;20142;-75
2021/12/30 09:17:37;;;;;;;13.45;4.45;;;;;;;13.10;93.74;101322.66;4981453;28;20030;-75
2021/12/30 09:20:03;;;;;;;7.93;4.00;;;;;;;13.13;93.45;101316.09;4987432;28;20069;-76
2021/12/30 09:22:28;;;;;;;8.27;4.93;;;;;;;13.17;93.26;101313.03;4984906;28;20037;-75
2021/12/30 09:24:54;;;;;;;12.18;4.35;;;;;;;13.21;92.81;101321.88;4978262;28;20588;-76
2021/12/30 09:27:19;;;;;;;11.75;4.47;;;;;;;13.25;92.74;101331.59;4984791;28;20030;-75
2021/12/30 09:29:44;;;;;;;7.97;3.85;;;;;;;13.27;92.47;101330.50;4986835;28;20034;-75
2021/12/30 09:32:10;;;;;;;9.93;4.63;;;;;;;13.28;92.42;101328.63;4981699;28;20080;-76
2021/12/30 09:34:35;;;;;;;7.75;4.45;;;;;;;13.30;92.28;101325.78;4985467;28;20096;-76
2021/12/30 09:37:01;;;;;;;9.40;4.60;;;;;;;13.32;91.81;101334.72;4980803;28;20383;-75
2021/12/30 09:39:26;;;;;;;9.15;4.13;;;;;;;13.33;91.70;101340.06;4980873;28;20363;-75
2021/12/30 09:41:51;;;;;;;11.73;5.03;;;;;;;13.35;91.29;101351.78;4981586;28;20111;-75
2021/12/30 09:44:18;;;;;;;9.80;3.83;;;;;;;13.40;91.20;101349.56;4977572;28;20045;-75
2021/12/30 09:46:44;;;;;;;9.45;3.67;;;;;;;13.42;91.17;101354.91;4986014;28;20597;-76
2021/12/30 09:49:13;;;;;;;11.43;3.97;;;;;;;13.45;90.93;101357.41;4987806;28;20034;-75
2021/12/30 09:51:42;;;;;;;8.48;4.07;;;;;;;13.47;90.70;101361.75;4972257;28;20096;-76
2021/12/30 09:54:08;;;;;;;10.05;3.90;;;;;;;13.46;90.60;101351.81;4987521;28;20026;-76
2021/12/30 09:56:33;;;;;;;8.50;3.83;;;;;;;13.45;90.84;101357.41;4984675;28;20641;-75
2021/12/30 09:58:59;;;;;;;7.88;3.88;;;;;;;13.45;90.67;101354.69;4979721;28;20026;-76
2021/12/30 10:01:24;;;;;;;10.15;3.78;;;;;;;13.46;90.52;101356.41;4984578;28;20085;-75
2021/12/30 10:04:00;;;;;;;8.00;3.63;;;;;;;13.46;90.54;101361.88;4982997;28;20030;-76
2021/12/30 10:06:26;;;;;;;11.20;4.50;;;;;;;13.44;90.25;101348.34;4981968;28;20050;-75
2021/12/30 10:08:57;;;;;;;14.27;3.85;;;;;;;13.45;90.25;101350.09;4980082;28;20122;-76
2021/12/30 10:11:24;;;;;;;9.60;3.17;;;;;;;13.45;90.27;101358.28;4981290;28;20105;-76
2021/12/30 10:13:56;;;;;;;14.05;4.25;;;;;;;13.48;90.08;101354.47;4977472;28;20047;-76
2021/12/30 10:16:22;;;;;;;7.97;3.67;;;;;;;13.49;90.01;101356.19;4982093;28;20038;-75
2021/12/30 10:18:57;;;;;;;12.25;4.13;;;;;;;13.52;90.21;101369.59;4984733;28;20038;-75
2021/12/30 10:21:43;;;;;;;13.68;4.13;;;;;;;13.58;89.81;101357.34;4974976;28;20066;-76
2021/12/30 10:24:11;;;;;;;12.13;3.60;;;;;;;13.62;89.46;101380.75;4972859;28;20030;-76
2021/12/30 10:26:54;;;;;;;12.55;3.70;;;;;;;13.66;89.75;101363.97;4985447;28;20045;-76
2021/12/30 10:29:19;;;;;;;12.35;3.58;;;;;;;13.66;88.94;101363.97;4977077;28;20045;-76
2021/12/30 10:31:45;;;;;;;11.30;4.03;;;;;;;13.70;89.46;101372.78;4972075;28;20042;-76
2021/12/30 10:34:11;;;;;;;13.02;3.60;;;;;;;13.67;89.06;101365.72;4983813;28;20039;-76
2021/12/30 10:36:57;;;;;;;13.73;3.50;;;;;;;13.65;89.37;101369.53;4985431;28;20415;-76
2021/12/30 10:39:32;;;;;;;9.63;3.35;;;;;;;13.64;89.37;101370.53;4981536;28;20096;-75
2021/12/30 10:42:06;;;;;;;9.82;3.33;;;;;;;13.66;89.02;101379.47;4982031;28;20185;-76
2021/12/30 10:44:53;;;;;;;11.60;3.00;;;;;;;13.71;88.67;101369.09;4974100;28;20026;-76
2021/12/30 10:47:21;;;;;;;9.73;3.53;;;;;;;13.72;87.93;101362.63;4978775;28;20053;-76
2021/12/30 10:50:09;;;;;;;14.05;3.72;;;;;;;13.74;89.33;101368.84;4975498;28;20114;-76
2021/12/30 10:52:34;;;;;;;10.82;3.47;;;;;;;13.74;88.48;101372.44;4976446;28;20038;-76
2021/12/30 10:55:10;;;;;;;14.18;3.47;;;;;;;13.76;88.46;101362.28;4985223;28;20030;-76
2021/12/30 10:57:35;;;;;;;7.97;3.00;;;;;;;13.81;88.10;101366.50;4974243;28;20038;-76
2021/12/30 11:00:01;;;;;;;19.05;4.68;;;;;;;13.85;87.84;101370.72;4980784;28;20486;-76
2021/12/30 11:02:28;;;;;;;15.82;3.72;;;;;;;13.88;88.59;101362.28;4981658;28;20034;-76
2021/12/30 11:04:56;;;;;;;16.80;3.22;;;;;;;13.88;88.13;101368.63;4984865;28;20490;-76
2021/12/30 11:07:27;;;;;;;9.82;3.28;;;;;;;13.89;88.22;101366.75;4982876;28;20038;-76
2021/12/30 11:09:56;;;;;;;10.18;3.67;;;;;;;13.94;87.44;101376.38;4979752;28;20525;-76
2021/12/30 11:12:32;;;;;;;9.02;3.40;;;;;;;13.94;87.61;101379.13;4985095;28;20042;-76
2021/12/30 11:15:05;;;;;;;7.20;2.95;;;;;;;13.97;86.70;101372.53;4979972;28;20022;-76